sensor_id;sensor_type;location;lat;lon;timestamp;P1;durP1;ratioP1;P2;durP2;ratioP2
33459;SDS011;19795;53.160;6.612;2022-08-19T03:38:23;194.38;;;181.57;;
33459;SDS011;19795;53.160;6.612;2022-08-19T03:43:24;200.52;;;187.30;;
33459;SDS011;19795;53.160;6.612;2022-08-19T03:45:59;194.73;;;181.20;;
33459;SDS011;19795;53.160;6.612;2022-08-19T03:48:29;203.02;;;189.63;;
33459;SDS011;19795;53.160;6.612;2022-08-19T03:50:56;209.68;;;196.00;;
33459;SDS011;19795;53.160;6.612;2022-08-19T03:53:23;209.73;;;195.80;;
33459;SDS011;19795;53.160;6.612;2022-08-19T03:55:51;200.05;;;186.57;;
33459;SDS011;19795;53.160;6.612;2022-08-19T03:58:16;206.73;;;193.20;;
33459;SDS011;19795;53.160;6.612;2022-08-19T04:00:42;201.50;;;187.90;;
33459;SDS011;19795;53.160;6.612;2022-08-19T04:03:08;202.20;;;188.30;;
33459;SDS011;19795;53.160;6.612;2022-08-19T04:05:34;199.77;;;186.00;;
33459;SDS011;19795;53.160;6.612;2022-08-19T04:07:59;204.77;;;189.50;;
33459;SDS011;19795;53.160;6.612;2022-08-19T04:10:25;199.05;;;184.13;;
33459;SDS011;19795;53.160;6.612;2022-08-19T04:12:53;212.75;;;196.95;;
33459;SDS011;19795;53.160;6.612;2022-08-19T04:15:19;200.80;;;185.27;;
33459;SDS011;19795;53.160;6.612;2022-08-19T04:17:45;217.23;;;200.52;;
33459;SDS011;19795;53.160;6.612;2022-08-19T04:20:11;213.13;;;196.15;;
33459;SDS011;19795;53.160;6.612;2022-08-19T04:22:37;225.18;;;208.35;;
33459;SDS011;19795;53.160;6.612;2022-08-19T04:25:02;221.02;;;204.70;;
33459;SDS011;19795;53.160;6.612;2022-08-19T04:27:28;218.60;;;202.23;;
33459;SDS011;19795;53.160;6.612;2022-08-19T04:29:54;216.23;;;200.05;;
33459;SDS011;19795;53.160;6.612;2022-08-19T04:32:20;227.10;;;210.68;;
33459;SDS011;19795;53.160;6.612;2022-08-19T04:34:46;221.77;;;203.93;;
33459;SDS011;19795;53.160;6.612;2022-08-19T04:37:11;225.90;;;208.73;;
33459;SDS011;19795;53.160;6.612;2022-08-19T04:39:38;224.95;;;207.75;;
33459;SDS011;19795;53.160;6.612;2022-08-19T04:42:23;222.43;;;205.80;;
33459;SDS011;19795;53.160;6.612;2022-08-19T04:45:05;218.43;;;201.35;;
33459;SDS011;19795;53.160;6.612;2022-08-19T04:47:31;224.35;;;207.25;;
33459;SDS011;19795;53.160;6.612;2022-08-19T04:49:57;218.35;;;201.32;;
33459;SDS011;19795;53.160;6.612;2022-08-19T04:52:23;222.23;;;205.35;;
33459;SDS011;19795;53.160;6.612;2022-08-19T04:54:49;209.40;;;192.95;;
33459;SDS011;19795;53.160;6.612;2022-08-19T04:57:15;211.93;;;196.35;;
33459;SDS011;19795;53.160;6.612;2022-08-19T04:59:40;214.05;;;197.85;;
33459;SDS011;19795;53.160;6.612;2022-08-19T05:02:07;217.65;;;201.32;;
33459;SDS011;19795;53.160;6.612;2022-08-19T05:04:34;211.48;;;195.50;;
33459;SDS011;19795;53.160;6.612;2022-08-19T05:07:03;212.68;;;196.38;;
33459;SDS011;19795;53.160;6.612;2022-08-19T05:09:30;209.70;;;193.27;;
33459;SDS011;19795;53.160;6.612;2022-08-19T05:11:56;210.60;;;194.38;;
33459;SDS011;19795;53.160;6.612;2022-08-19T05:14:21;211.57;;;194.90;;
33459;SDS011;19795;53.160;6.612;2022-08-19T05:16:48;213.40;;;196.93;;
33459;SDS011;19795;53.160;6.612;2022-08-19T05:19:13;216.95;;;200.48;;
33459;SDS011;19795;53.160;6.612;2022-08-19T05:21:58;215.38;;;199.35;;
33459;SDS011;19795;53.160;6.612;2022-08-19T05:24:43;218.05;;;201.68;;
33459;SDS011;19795;53.160;6.612;2022-08-19T05:27:09;217.23;;;200.63;;
33459;SDS011;19795;53.160;6.612;2022-08-19T05:29:35;221.63;;;205.32;;
33459;SDS011;19795;53.160;6.612;2022-08-19T05:32:01;220.45;;;204.20;;
33459;SDS011;19795;53.160;6.612;2022-08-19T05:34:30;224.52;;;208.20;;
33459;SDS011;19795;53.160;6.612;2022-08-19T05:36:58;225.82;;;209.52;;
33459;SDS011;19795;53.160;6.612;2022-08-19T05:39:25;232.82;;;215.75;;
33459;SDS011;19795;53.160;6.612;2022-08-19T05:41:58;245.23;;;229.18;;
33459;SDS011;19795;53.160;6.612;2022-08-19T05:44:25;210.73;;;198.73;;
33459;SDS011;19795;53.160;6.612;2022-08-19T05:46:51;120.15;;;114.20;;
33459;SDS011;19795;53.160;6.612;2022-08-19T05:49:18;16.27;;;14.88;;
33459;SDS011;19795;53.160;6.612;2022-08-19T05:51:44;10.98;;;8.60;;
33459;SDS011;19795;53.160;6.612;2022-08-19T05:54:10;11.43;;;8.57;;
33459;SDS011;19795;53.160;6.612;2022-08-19T05:56:38;11.68;;;9.00;;
33459;SDS011;19795;53.160;6.612;2022-08-19T05:59:08;12.40;;;8.82;;
33459;SDS011;19795;53.160;6.612;2022-08-19T06:01:40;11.10;;;8.00;;
33459;SDS011;19795;53.160;6.612;2022-08-19T06:04:07;11.63;;;8.55;;
33459;SDS011;19795;53.160;6.612;2022-08-19T06:06:34;12.75;;;7.72;;
33459;SDS011;19795;53.160;6.612;2022-08-19T06:09:01;11.63;;;7.47;;
33459;SDS011;19795;53.160;6.612;2022-08-19T06:11:36;9.32;;;7.63;;
33459;SDS011;19795;53.160;6.612;2022-08-19T06:14:10;10.80;;;7.70;;
33459;SDS011;19795;53.160;6.612;2022-08-19T06:16:38;11.73;;;8.13;;
33459;SDS011;19795;53.160;6.612;2022-08-19T06:19:07;9.70;;;7.75;;
33459;SDS011;19795;53.160;6.612;2022-08-19T06:21:38;9.67;;;6.87;;
33459;SDS011;19795;53.160;6.612;2022-08-19T06:24:06;10.43;;;7.13;;
33459;SDS011;19795;53.160;6.612;2022-08-19T06:26:34;10.27;;;6.55;;
33459;SDS011;19795;53.160;6.612;2022-08-19T06:29:04;9.02;;;7.10;;
33459;SDS011;19795;53.160;6.612;2022-08-19T06:31:32;9.05;;;6.38;;
33459;SDS011;19795;53.160;6.612;2022-08-19T06:34:01;8.32;;;7.07;;
33459;SDS011;19795;53.160;6.612;2022-08-19T06:36:30;8.95;;;6.50;;
33459;SDS011;19795;53.160;6.612;2022-08-19T06:38:58;9.82;;;6.60;;
33459;SDS011;19795;53.160;6.612;2022-08-19T06:41:25;9.40;;;6.70;;
33459;SDS011;19795;53.160;6.612;2022-08-19T06:43:52;9.70;;;6.40;;
33459;SDS011;19795;53.160;6.612;2022-08-19T06:46:18;10.20;;;6.30;;
33459;SDS011;19795;53.160;6.612;2022-08-19T06:48:45;8.80;;;6.88;;
33459;SDS011;19795;53.160;6.612;2022-08-19T06:51:12;8.23;;;6.40;;
33459;SDS011;19795;53.160;6.612;2022-08-19T06:53:44;8.88;;;6.63;;
33459;SDS011;19795;53.160;6.612;2022-08-19T06:56:15;9.18;;;6.50;;
33459;SDS011;19795;53.160;6.612;2022-08-19T06:58:41;7.60;;;5.88;;
33459;SDS011;19795;53.160;6.612;2022-08-19T07:01:07;9.30;;;6.00;;
33459;SDS011;19795;53.160;6.612;2022-08-19T07:03:34;8.18;;;6.30;;
33459;SDS011;19795;53.160;6.612;2022-08-19T07:06:09;9.02;;;5.68;;
33459;SDS011;19795;53.160;6.612;2022-08-19T07:08:37;8.95;;;6.22;;
33459;SDS011;19795;53.160;6.612;2022-08-19T07:11:06;6.50;;;5.20;;
33459;SDS011;19795;53.160;6.612;2022-08-19T07:13:34;7.95;;;5.72;;
33459;SDS011;19795;53.160;6.612;2022-08-19T07:16:07;8.18;;;5.85;;
33459;SDS011;19795;53.160;6.612;2022-08-19T07:18:37;8.85;;;5.53;;
33459;SDS011;19795;53.160;6.612;2022-08-19T07:21:06;11.13;;;5.15;;
33459;SDS011;19795;53.160;6.612;2022-08-19T07:23:34;7.60;;;4.82;;
33459;SDS011;19795;53.160;6.612;2022-08-19T07:26:07;8.27;;;5.07;;
33459;SDS011;19795;53.160;6.612;2022-08-19T07:28:39;7.78;;;5.15;;
33459;SDS011;19795;53.160;6.612;2022-08-19T07:31:12;14.13;;;5.30;;
33459;SDS011;19795;53.160;6.612;2022-08-19T07:33:40;8.63;;;5.25;;
33459;SDS011;19795;53.160;6.612;2022-08-19T07:36:08;6.38;;;5.47;;
33459;SDS011;19795;53.160;6.612;2022-08-19T07:38:39;6.57;;;5.07;;
33459;SDS011;19795;53.160;6.612;2022-08-19T07:41:06;7.50;;;5.15;;
33459;SDS011;19795;53.160;6.612;2022-08-19T07:43:34;9.15;;;5.93;;
33459;SDS011;19795;53.160;6.612;2022-08-19T07:45:59;7.57;;;5.38;;
33459;SDS011;19795;53.160;6.612;2022-08-19T07:48:26;7.22;;;5.25;;
33459;SDS011;19795;53.160;6.612;2022-08-19T07:50:53;7.50;;;5.18;;
33459;SDS011;19795;53.160;6.612;2022-08-19T07:53:20;7.80;;;4.57;;
33459;SDS011;19795;53.160;6.612;2022-08-19T07:55:46;9.35;;;5.95;;
33459;SDS011;19795;53.160;6.612;2022-08-19T07:58:14;6.93;;;5.15;;
33459;SDS011;19795;53.160;6.612;2022-08-19T08:00:46;9.13;;;5.07;;
33459;SDS011;19795;53.160;6.612;2022-08-19T08:03:14;6.13;;;4.45;;
33459;SDS011;19795;53.160;6.612;2022-08-19T08:05:44;7.03;;;4.90;;
33459;SDS011;19795;53.160;6.612;2022-08-19T08:08:29;8.88;;;5.07;;
33459;SDS011;19795;53.160;6.612;2022-08-19T08:11:14;7.65;;;4.53;;
33459;SDS011;19795;53.160;6.612;2022-08-19T08:13:43;7.78;;;4.45;;
33459;SDS011;19795;53.160;6.612;2022-08-19T08:16:09;7.95;;;4.55;;
33459;SDS011;19795;53.160;6.612;2022-08-19T08:18:35;7.55;;;5.20;;
33459;SDS011;19795;53.160;6.612;2022-08-19T08:21:06;8.38;;;5.10;;
33459;SDS011;19795;53.160;6.612;2022-08-19T08:23:32;7.72;;;5.65;;
33459;SDS011;19795;53.160;6.612;2022-08-19T08:25:58;7.93;;;5.47;;
33459;SDS011;19795;53.160;6.612;2022-08-19T08:28:24;10.32;;;5.20;;
33459;SDS011;19795;53.160;6.612;2022-08-19T08:30:51;6.53;;;3.80;;
33459;SDS011;19795;53.160;6.612;2022-08-19T08:33:17;5.47;;;3.47;;
33459;SDS011;19795;53.160;6.612;2022-08-19T08:35:47;8.27;;;4.13;;
33459;SDS011;19795;53.160;6.612;2022-08-19T08:38:13;7.65;;;4.90;;
33459;SDS011;19795;53.160;6.612;2022-08-19T08:40:53;7.53;;;5.30;;
33459;SDS011;19795;53.160;6.612;2022-08-19T08:43:39;7.10;;;5.18;;
33459;SDS011;19795;53.160;6.612;2022-08-19T08:46:19;7.43;;;5.15;;
33459;SDS011;19795;53.160;6.612;2022-08-19T08:51:35;8.35;;;4.80;;
33459;SDS011;19795;53.160;6.612;2022-08-19T08:54:04;6.53;;;4.28;;
33459;SDS011;19795;53.160;6.612;2022-08-19T08:56:31;7.63;;;4.90;;
33459;SDS011;19795;53.160;6.612;2022-08-19T08:59:07;6.75;;;4.38;;
33459;SDS011;19795;53.160;6.612;2022-08-19T09:01:40;5.70;;;3.90;;
33459;SDS011;19795;53.160;6.612;2022-08-19T09:04:05;6.95;;;4.25;;
33459;SDS011;19795;53.160;6.612;2022-08-19T09:12:08;10.77;;;7.05;;
33459;SDS011;19795;53.160;6.612;2022-08-19T09:14:37;9.75;;;7.80;;
33459;SDS011;19795;53.160;6.612;2022-08-19T09:17:10;9.43;;;7.05;;
33459;SDS011;19795;53.160;6.612;2022-08-19T09:22:34;9.18;;;6.70;;
33459;SDS011;19795;53.160;6.612;2022-08-19T09:25:01;7.70;;;5.07;;
33459;SDS011;19795;53.160;6.612;2022-08-19T09:27:27;10.02;;;7.72;;
33459;SDS011;19795;53.160;6.612;2022-08-19T09:29:53;11.95;;;8.02;;
33459;SDS011;19795;53.160;6.612;2022-08-19T09:32:20;8.82;;;6.30;;
33459;SDS011;19795;53.160;6.612;2022-08-19T09:34:47;9.20;;;6.72;;
33459;SDS011;19795;53.160;6.612;2022-08-19T09:37:13;7.55;;;5.63;;
33459;SDS011;19795;53.160;6.612;2022-08-19T09:39:39;9.00;;;6.35;;
33459;SDS011;19795;53.160;6.612;2022-08-19T09:42:09;9.73;;;7.22;;
33459;SDS011;19795;53.160;6.612;2022-08-19T09:44:40;9.38;;;7.32;;
33459;SDS011;19795;53.160;6.612;2022-08-19T09:47:07;9.50;;;7.07;;
33459;SDS011;19795;53.160;6.612;2022-08-19T09:49:34;10.85;;;8.32;;
33459;SDS011;19795;53.160;6.612;2022-08-19T09:52:00;10.45;;;7.10;;
33459;SDS011;19795;53.160;6.612;2022-08-19T09:54:26;9.15;;;7.18;;
33459;SDS011;19795;53.160;6.612;2022-08-19T09:56:55;13.00;;;8.50;;
33459;SDS011;19795;53.160;6.612;2022-08-19T09:59:23;11.68;;;9.10;;
33459;SDS011;19795;53.160;6.612;2022-08-19T10:01:49;13.75;;;8.38;;
33459;SDS011;19795;53.160;6.612;2022-08-19T10:04:16;12.85;;;10.57;;
33459;SDS011;19795;53.160;6.612;2022-08-19T10:06:41;10.82;;;8.57;;
33459;SDS011;19795;53.160;6.612;2022-08-19T10:09:08;12.38;;;8.68;;
33459;SDS011;19795;53.160;6.612;2022-08-19T10:11:35;9.85;;;7.72;;
33459;SDS011;19795;53.160;6.612;2022-08-19T10:14:04;9.90;;;7.35;;
33459;SDS011;19795;53.160;6.612;2022-08-19T10:16:33;11.20;;;8.60;;
33459;SDS011;19795;53.160;6.612;2022-08-19T10:19:01;10.73;;;7.90;;
33459;SDS011;19795;53.160;6.612;2022-08-19T10:21:29;12.85;;;9.73;;
33459;SDS011;19795;53.160;6.612;2022-08-19T10:23:57;11.90;;;8.80;;
33459;SDS011;19795;53.160;6.612;2022-08-19T10:26:25;12.35;;;7.90;;
33459;SDS011;19795;53.160;6.612;2022-08-19T10:28:54;10.60;;;7.68;;
33459;SDS011;19795;53.160;6.612;2022-08-19T10:31:30;9.80;;;6.88;;
33459;SDS011;19795;53.160;6.612;2022-08-19T10:33:56;11.05;;;8.55;;
33459;SDS011;19795;53.160;6.612;2022-08-19T10:36:24;8.90;;;6.63;;
33459;SDS011;19795;53.160;6.612;2022-08-19T10:38:53;10.13;;;7.32;;
33459;SDS011;19795;53.160;6.612;2022-08-19T10:41:24;11.45;;;7.30;;
33459;SDS011;19795;53.160;6.612;2022-08-19T10:43:52;13.45;;;8.82;;
33459;SDS011;19795;53.160;6.612;2022-08-19T10:46:39;10.18;;;7.43;;
33459;SDS011;19795;53.160;6.612;2022-08-19T10:49:07;9.80;;;7.78;;
33459;SDS011;19795;53.160;6.612;2022-08-19T10:51:33;10.23;;;7.78;;
33459;SDS011;19795;53.160;6.612;2022-08-19T10:54:18;8.02;;;6.88;;
33459;SDS011;19795;53.160;6.612;2022-08-19T10:56:44;10.45;;;7.90;;
33459;SDS011;19795;53.160;6.612;2022-08-19T10:59:16;11.75;;;8.30;;
33459;SDS011;19795;53.160;6.612;2022-08-19T11:01:52;9.60;;;6.97;;
33459;SDS011;19795;53.160;6.612;2022-08-19T11:04:19;10.60;;;6.90;;
33459;SDS011;19795;53.160;6.612;2022-08-19T11:06:48;10.30;;;8.18;;
33459;SDS011;19795;53.160;6.612;2022-08-19T11:09:15;11.05;;;8.65;;
33459;SDS011;19795;53.160;6.612;2022-08-19T11:11:42;12.93;;;9.73;;
33459;SDS011;19795;53.160;6.612;2022-08-19T11:14:09;11.63;;;9.70;;
33459;SDS011;19795;53.160;6.612;2022-08-19T11:16:37;12.10;;;9.60;;
33459;SDS011;19795;53.160;6.612;2022-08-19T11:19:04;13.57;;;10.35;;
33459;SDS011;19795;53.160;6.612;2022-08-19T11:21:34;12.60;;;10.27;;
33459;SDS011;19795;53.160;6.612;2022-08-19T11:24:05;14.32;;;10.00;;
33459;SDS011;19795;53.160;6.612;2022-08-19T11:26:32;10.48;;;8.27;;
33459;SDS011;19795;53.160;6.612;2022-08-19T11:29:00;10.85;;;8.25;;
33459;SDS011;19795;53.160;6.612;2022-08-19T11:31:29;11.55;;;8.68;;
33459;SDS011;19795;53.160;6.612;2022-08-19T11:34:00;11.52;;;9.35;;
33459;SDS011;19795;53.160;6.612;2022-08-19T11:36:28;14.32;;;10.75;;
33459;SDS011;19795;53.160;6.612;2022-08-19T11:38:55;11.90;;;8.40;;
33459;SDS011;19795;53.160;6.612;2022-08-19T11:41:21;12.60;;;9.60;;
33459;SDS011;19795;53.160;6.612;2022-08-19T11:43:48;14.27;;;9.40;;
33459;SDS011;19795;53.160;6.612;2022-08-19T11:46:15;11.98;;;9.10;;
33459;SDS011;19795;53.160;6.612;2022-08-19T11:48:42;12.60;;;9.43;;
33459;SDS011;19795;53.160;6.612;2022-08-19T11:51:14;11.73;;;8.95;;
33459;SDS011;19795;53.160;6.612;2022-08-19T11:53:43;12.05;;;9.52;;
33459;SDS011;19795;53.160;6.612;2022-08-19T11:56:10;9.40;;;8.02;;
33459;SDS011;19795;53.160;6.612;2022-08-19T11:58:37;10.88;;;8.63;;
33459;SDS011;19795;53.160;6.612;2022-08-19T12:01:10;13.07;;;9.70;;
33459;SDS011;19795;53.160;6.612;2022-08-19T12:06:07;12.35;;;10.07;;
33459;SDS011;19795;53.160;6.612;2022-08-19T12:08:34;12.35;;;9.43;;
33459;SDS011;19795;53.160;6.612;2022-08-19T12:11:00;12.93;;;9.38;;
33459;SDS011;19795;53.160;6.612;2022-08-19T12:13:27;12.98;;;10.25;;
33459;SDS011;19795;53.160;6.612;2022-08-19T12:15:56;10.02;;;8.18;;
33459;SDS011;19795;53.160;6.612;2022-08-19T12:18:22;12.57;;;8.00;;
33459;SDS011;19795;53.160;6.612;2022-08-19T12:20:50;9.88;;;6.90;;
33459;SDS011;19795;53.160;6.612;2022-08-19T12:23:16;9.60;;;7.15;;
33459;SDS011;19795;53.160;6.612;2022-08-19T12:25:43;9.75;;;7.72;;
33459;SDS011;19795;53.160;6.612;2022-08-19T12:28:18;13.95;;;8.35;;
33459;SDS011;19795;53.160;6.612;2022-08-19T12:30:45;12.30;;;8.68;;
33459;SDS011;19795;53.160;6.612;2022-08-19T12:33:12;11.02;;;8.00;;
33459;SDS011;19795;53.160;6.612;2022-08-19T12:35:42;9.85;;;7.43;;
33459;SDS011;19795;53.160;6.612;2022-08-19T12:38:10;10.63;;;8.35;;
33459;SDS011;19795;53.160;6.612;2022-08-19T12:40:36;9.88;;;7.72;;
33459;SDS011;19795;53.160;6.612;2022-08-19T12:43:02;10.32;;;7.53;;
33459;SDS011;19795;53.160;6.612;2022-08-19T12:45:28;10.52;;;8.55;;
33459;SDS011;19795;53.160;6.612;2022-08-19T12:47:54;11.27;;;8.32;;
33459;SDS011;19795;53.160;6.612;2022-08-19T12:50:20;10.13;;;8.13;;
33459;SDS011;19795;53.160;6.612;2022-08-19T12:52:46;10.68;;;8.02;;
33459;SDS011;19795;53.160;6.612;2022-08-19T12:55:13;12.38;;;8.85;;
33459;SDS011;19795;53.160;6.612;2022-08-19T12:57:38;15.18;;;7.80;;
33459;SDS011;19795;53.160;6.612;2022-08-19T13:00:09;10.18;;;7.65;;
33459;SDS011;19795;53.160;6.612;2022-08-19T13:02:40;12.07;;;7.90;;
33459;SDS011;19795;53.160;6.612;2022-08-19T13:05:09;12.15;;;7.40;;
33459;SDS011;19795;53.160;6.612;2022-08-19T13:07:38;9.77;;;7.55;;
33459;SDS011;19795;53.160;6.612;2022-08-19T13:10:05;11.20;;;7.07;;
33459;SDS011;19795;53.160;6.612;2022-08-19T13:12:32;10.75;;;6.90;;
33459;SDS011;19795;53.160;6.612;2022-08-19T13:14:58;12.13;;;7.18;;
33459;SDS011;19795;53.160;6.612;2022-08-19T13:17:24;9.00;;;6.72;;
33459;SDS011;19795;53.160;6.612;2022-08-19T13:19:49;12.13;;;6.88;;
33459;SDS011;19795;53.160;6.612;2022-08-19T13:22:15;12.05;;;7.10;;
33459;SDS011;19795;53.160;6.612;2022-08-19T13:24:41;10.65;;;6.85;;
33459;SDS011;19795;53.160;6.612;2022-08-19T13:27:08;12.27;;;8.93;;
33459;SDS011;19795;53.160;6.612;2022-08-19T13:29:33;11.93;;;8.43;;
33459;SDS011;19795;53.160;6.612;2022-08-19T13:35:02;13.82;;;10.32;;
33459;SDS011;19795;53.160;6.612;2022-08-19T13:37:28;15.75;;;10.70;;
33459;SDS011;19795;53.160;6.612;2022-08-19T13:40:09;19.55;;;10.55;;
33459;SDS011;19795;53.160;6.612;2022-08-19T13:42:45;17.60;;;11.98;;
33459;SDS011;19795;53.160;6.612;2022-08-19T13:45:13;20.30;;;11.73;;
33459;SDS011;19795;53.160;6.612;2022-08-19T13:47:44;18.85;;;11.93;;
33459;SDS011;19795;53.160;6.612;2022-08-19T13:50:12;17.15;;;11.55;;
33459;SDS011;19795;53.160;6.612;2022-08-19T13:52:39;16.38;;;10.57;;
33459;SDS011;19795;53.160;6.612;2022-08-19T13:55:06;15.10;;;10.60;;
33459;SDS011;19795;53.160;6.612;2022-08-19T13:57:33;13.57;;;8.65;;
33459;SDS011;19795;53.160;6.612;2022-08-19T13:59:59;14.50;;;8.60;;
33459;SDS011;19795;53.160;6.612;2022-08-19T14:02:25;12.25;;;8.25;;
33459;SDS011;19795;53.160;6.612;2022-08-19T14:04:51;12.13;;;7.38;;
33459;SDS011;19795;53.160;6.612;2022-08-19T14:07:17;11.68;;;6.70;;
33459;SDS011;19795;53.160;6.612;2022-08-19T14:09:43;11.55;;;7.20;;
33459;SDS011;19795;53.160;6.612;2022-08-19T14:12:09;15.68;;;7.18;;
33459;SDS011;19795;53.160;6.612;2022-08-19T14:14:39;12.52;;;7.95;;
33459;SDS011;19795;53.160;6.612;2022-08-19T14:17:05;12.43;;;7.60;;
33459;SDS011;19795;53.160;6.612;2022-08-19T14:19:32;11.43;;;7.72;;
33459;SDS011;19795;53.160;6.612;2022-08-19T14:21:58;10.50;;;7.32;;
33459;SDS011;19795;53.160;6.612;2022-08-19T14:24:23;11.23;;;7.78;;
33459;SDS011;19795;53.160;6.612;2022-08-19T14:26:49;11.52;;;7.82;;
33459;SDS011;19795;53.160;6.612;2022-08-19T14:29:15;11.90;;;8.75;;
33459;SDS011;19795;53.160;6.612;2022-08-19T14:31:41;16.63;;;9.20;;
33459;SDS011;19795;53.160;6.612;2022-08-19T14:34:08;16.45;;;10.52;;
33459;SDS011;19795;53.160;6.612;2022-08-19T14:36:35;16.20;;;10.30;;
33459;SDS011;19795;53.160;6.612;2022-08-19T14:39:02;20.02;;;12.65;;
33459;SDS011;19795;53.160;6.612;2022-08-19T14:41:28;19.33;;;12.20;;
33459;SDS011;19795;53.160;6.612;2022-08-19T14:44:03;18.55;;;10.90;;
33459;SDS011;19795;53.160;6.612;2022-08-19T14:46:29;18.85;;;11.07;;
33459;SDS011;19795;53.160;6.612;2022-08-19T14:48:55;17.52;;;10.38;;
33459;SDS011;19795;53.160;6.612;2022-08-19T14:51:21;20.17;;;11.52;;
33459;SDS011;19795;53.160;6.612;2022-08-19T14:53:48;17.08;;;10.57;;
33459;SDS011;19795;53.160;6.612;2022-08-19T14:56:16;16.90;;;11.60;;
33459;SDS011;19795;53.160;6.612;2022-08-19T14:58:43;17.58;;;10.50;;
33459;SDS011;19795;53.160;6.612;2022-08-19T15:01:09;19.10;;;9.82;;
33459;SDS011;19795;53.160;6.612;2022-08-19T15:03:36;18.65;;;12.07;;
33459;SDS011;19795;53.160;6.612;2022-08-19T15:06:03;18.45;;;11.48;;
33459;SDS011;19795;53.160;6.612;2022-08-19T15:08:30;20.08;;;11.48;;
33459;SDS011;19795;53.160;6.612;2022-08-19T15:10:57;20.58;;;11.25;;
33459;SDS011;19795;53.160;6.612;2022-08-19T15:13:24;15.02;;;10.75;;
33459;SDS011;19795;53.160;6.612;2022-08-19T15:15:56;16.23;;;11.60;;
33459;SDS011;19795;53.160;6.612;2022-08-19T15:18:22;16.55;;;11.20;;
33459;SDS011;19795;53.160;6.612;2022-08-19T15:20:48;19.95;;;11.23;;
33459;SDS011;19795;53.160;6.612;2022-08-19T15:23:15;15.55;;;10.02;;
33459;SDS011;19795;53.160;6.612;2022-08-19T15:25:42;15.68;;;10.18;;
33459;SDS011;19795;53.160;6.612;2022-08-19T15:28:08;15.98;;;9.95;;
33459;SDS011;19795;53.160;6.612;2022-08-19T15:30:37;15.02;;;9.20;;
33459;SDS011;19795;53.160;6.612;2022-08-19T15:33:03;16.23;;;10.38;;
33459;SDS011;19795;53.160;6.612;2022-08-19T15:35:30;16.77;;;10.45;;
33459;SDS011;19795;53.160;6.612;2022-08-19T15:37:56;13.85;;;7.32;;
33459;SDS011;19795;53.160;6.612;2022-08-19T15:40:23;7.28;;;4.55;;
33459;SDS011;19795;53.160;6.612;2022-08-19T15:42:50;8.95;;;4.05;;
33459;SDS011;19795;53.160;6.612;2022-08-19T15:45:16;6.00;;;4.07;;
33459;SDS011;19795;53.160;6.612;2022-08-19T15:47:43;7.93;;;4.20;;
33459;SDS011;19795;53.160;6.612;2022-08-19T15:50:11;7.68;;;4.00;;
33459;SDS011;19795;53.160;6.612;2022-08-19T15:55:11;10.57;;;6.10;;
33459;SDS011;19795;53.160;6.612;2022-08-19T15:57:37;10.82;;;5.90;;
33459;SDS011;19795;53.160;6.612;2022-08-19T16:00:21;15.25;;;6.47;;
33459;SDS011;19795;53.160;6.612;2022-08-19T16:05:49;12.73;;;7.10;;
33459;SDS011;19795;53.160;6.612;2022-08-19T16:08:51;11.75;;;7.75;;
33459;SDS011;19795;53.160;6.612;2022-08-19T16:11:22;15.02;;;7.97;;
33459;SDS011;19795;53.160;6.612;2022-08-19T16:13:53;10.05;;;6.70;;
33459;SDS011;19795;53.160;6.612;2022-08-19T16:16:22;14.93;;;7.53;;
33459;SDS011;19795;53.160;6.612;2022-08-19T16:18:53;14.80;;;8.02;;
33459;SDS011;19795;53.160;6.612;2022-08-19T16:21:20;13.77;;;9.00;;
33459;SDS011;19795;53.160;6.612;2022-08-19T16:23:47;17.40;;;8.80;;
33459;SDS011;19795;53.160;6.612;2022-08-19T16:26:15;10.88;;;6.93;;
33459;SDS011;19795;53.160;6.612;2022-08-19T16:28:43;10.73;;;7.07;;
33459;SDS011;19795;53.160;6.612;2022-08-19T16:31:09;14.18;;;7.47;;
33459;SDS011;19795;53.160;6.612;2022-08-19T16:33:40;11.85;;;6.47;;
33459;SDS011;19795;53.160;6.612;2022-08-19T16:36:06;15.98;;;7.28;;
33459;SDS011;19795;53.160;6.612;2022-08-19T16:38:32;16.55;;;7.70;;
33459;SDS011;19795;53.160;6.612;2022-08-19T16:40:59;13.30;;;6.30;;
33459;SDS011;19795;53.160;6.612;2022-08-19T16:43:26;12.32;;;7.35;;
33459;SDS011;19795;53.160;6.612;2022-08-19T16:45:53;11.57;;;7.00;;
33459;SDS011;19795;53.160;6.612;2022-08-19T16:48:19;10.07;;;7.03;;
33459;SDS011;19795;53.160;6.612;2022-08-19T16:50:51;8.85;;;6.57;;
33459;SDS011;19795;53.160;6.612;2022-08-19T16:53:17;15.13;;;7.55;;
33459;SDS011;19795;53.160;6.612;2022-08-19T16:55:46;13.23;;;8.10;;
33459;SDS011;19795;53.160;6.612;2022-08-19T16:58:17;21.00;;;12.65;;
33459;SDS011;19795;53.160;6.612;2022-08-19T17:00:44;18.05;;;12.02;;
33459;SDS011;19795;53.160;6.612;2022-08-19T17:03:11;19.27;;;12.93;;
33459;SDS011;19795;53.160;6.612;2022-08-19T17:05:43;18.40;;;11.82;;
33459;SDS011;19795;53.160;6.612;2022-08-19T17:10:36;18.58;;;12.05;;
33459;SDS011;19795;53.160;6.612;2022-08-19T17:13:03;27.77;;;15.27;;
33459;SDS011;19795;53.160;6.612;2022-08-19T17:15:32;37.35;;;17.52;;
33459;SDS011;19795;53.160;6.612;2022-08-19T17:17:59;27.40;;;14.50;;
33459;SDS011;19795;53.160;6.612;2022-08-19T17:20:29;23.98;;;14.65;;
33459;SDS011;19795;53.160;6.612;2022-08-19T17:22:56;30.98;;;16.33;;
33459;SDS011;19795;53.160;6.612;2022-08-19T17:25:23;27.52;;;15.95;;
33459;SDS011;19795;53.160;6.612;2022-08-19T17:27:50;26.98;;;17.35;;
33459;SDS011;19795;53.160;6.612;2022-08-19T17:30:17;26.52;;;17.17;;
33459;SDS011;19795;53.160;6.612;2022-08-19T17:32:42;25.85;;;18.80;;
33459;SDS011;19795;53.160;6.612;2022-08-19T17:35:08;28.48;;;23.15;;
33459;SDS011;19795;53.160;6.612;2022-08-19T17:37:34;32.30;;;29.00;;
33459;SDS011;19795;53.160;6.612;2022-08-19T17:40:05;38.75;;;35.13;;
33459;SDS011;19795;53.160;6.612;2022-08-19T17:42:33;42.55;;;38.83;;
33459;SDS011;19795;53.160;6.612;2022-08-19T17:45:00;50.45;;;46.05;;
33459;SDS011;19795;53.160;6.612;2022-08-19T17:47:26;58.10;;;53.65;;
33459;SDS011;19795;53.160;6.612;2022-08-19T17:49:52;67.40;;;62.90;;
33459;SDS011;19795;53.160;6.612;2022-08-19T17:52:18;72.38;;;67.20;;
33459;SDS011;19795;53.160;6.612;2022-08-19T17:54:44;86.18;;;80.68;;
33459;SDS011;19795;53.160;6.612;2022-08-19T17:57:10;101.18;;;94.57;;
33459;SDS011;19795;53.160;6.612;2022-08-19T17:59:38;105.10;;;98.78;;
33459;SDS011;19795;53.160;6.612;2022-08-19T18:02:04;110.95;;;104.43;;
33459;SDS011;19795;53.160;6.612;2022-08-19T18:04:32;105.55;;;99.22;;
33459;SDS011;19795;53.160;6.612;2022-08-19T18:06:58;115.03;;;108.25;;
33459;SDS011;19795;53.160;6.612;2022-08-19T18:09:29;118.40;;;111.32;;
33459;SDS011;19795;53.160;6.612;2022-08-19T18:11:56;119.40;;;112.57;;
33459;SDS011;19795;53.160;6.612;2022-08-19T18:14:24;121.07;;;113.97;;
33459;SDS011;19795;53.160;6.612;2022-08-19T18:16:55;101.70;;;95.68;;
33459;SDS011;19795;53.160;6.612;2022-08-19T18:19:22;115.03;;;107.80;;
33459;SDS011;19795;53.160;6.612;2022-08-19T18:21:49;124.63;;;116.85;;
33459;SDS011;19795;53.160;6.612;2022-08-19T18:24:14;132.35;;;124.32;;
33459;SDS011;19795;53.160;6.612;2022-08-19T18:26:40;125.75;;;117.90;;
33459;SDS011;19795;53.160;6.612;2022-08-19T18:29:06;116.00;;;109.40;;
33459;SDS011;19795;53.160;6.612;2022-08-19T18:31:33;113.38;;;106.57;;
33459;SDS011;19795;53.160;6.612;2022-08-19T18:34:01;117.18;;;110.43;;
33459;SDS011;19795;53.160;6.612;2022-08-19T18:36:27;111.30;;;104.18;;
33459;SDS011;19795;53.160;6.612;2022-08-19T18:38:53;109.05;;;102.60;;